createdAt,value
2023-02-23T00:02:05.950Z,16.03
2023-02-23T00:04:33.804Z,18.60
2023-02-23T00:07:00.934Z,16.73
2023-02-23T00:09:28.043Z,20.40
2023-02-23T00:11:57.868Z,19.90
2023-02-23T00:14:31.060Z,19.50
2023-02-23T00:16:59.864Z,18.43
2023-02-23T00:19:26.897Z,15.23
2023-02-23T00:21:54.377Z,16.10
2023-02-23T00:24:21.808Z,18.50
2023-02-23T00:26:51.241Z,15.50
2023-02-23T00:29:21.017Z,14.30
2023-02-23T00:31:49.271Z,21.90
2023-02-23T00:34:22.040Z,17.30
2023-02-23T00:36:55.087Z,22.00
2023-02-23T00:39:26.516Z,24.27
2023-02-23T00:41:54.795Z,20.03
2023-02-23T00:44:23.528Z,17.40
2023-02-23T00:46:51.692Z,15.70
2023-02-23T00:49:20.769Z,19.17
2023-02-23T00:51:47.972Z,21.57
2023-02-23T00:54:16.288Z,21.50
2023-02-23T00:56:43.031Z,20.03
2023-02-23T00:59:10.150Z,24.47
2023-02-23T01:01:38.485Z,16.20
2023-02-23T01:04:07.227Z,22.53
2023-02-23T01:06:37.586Z,18.17
2023-02-23T01:09:09.549Z,24.10
2023-02-23T01:11:36.419Z,16.83
2023-02-23T01:14:03.714Z,18.20
2023-02-23T01:16:32.999Z,21.63
2023-02-23T01:19:03.455Z,20.30
2023-02-23T01:21:33.741Z,18.07
2023-02-23T01:24:00.957Z,26.07
2023-02-23T01:26:30.511Z,21.87
2023-02-23T01:29:00.698Z,20.60
2023-02-23T01:31:29.118Z,19.83
2023-02-23T01:33:57.789Z,20.00
2023-02-23T01:36:29.080Z,22.90
2023-02-23T01:38:57.036Z,20.13
2023-02-23T01:41:26.260Z,27.43
2023-02-23T01:44:01.091Z,25.48
2023-02-23T01:46:28.104Z,20.43
2023-02-23T01:48:56.487Z,20.75
2023-02-23T01:51:27.678Z,24.67
2023-02-23T01:54:04.562Z,21.90
2023-02-23T01:56:43.420Z,19.67
2023-02-23T01:59:12.357Z,24.30
2023-02-23T02:01:40.753Z,18.42
2023-02-23T02:04:09.039Z,16.00
2023-02-23T02:06:39.160Z,23.47
2023-02-23T02:09:15.516Z,19.53
2023-02-23T02:11:44.644Z,27.38
2023-02-23T02:14:18.619Z,18.30
2023-02-23T02:17:03.535Z,23.75
2023-02-23T02:19:45.280Z,21.63
2023-02-23T02:22:30.738Z,21.17
2023-02-23T02:25:32.887Z,20.10
2023-02-23T02:28:22.274Z,17.83
2023-02-23T02:31:10.667Z,18.27
2023-02-23T02:33:49.681Z,18.90
2023-02-23T02:36:41.350Z,18.58
2023-02-23T02:39:11.131Z,16.57
2023-02-23T02:42:05.786Z,18.17
2023-02-23T02:44:57.479Z,17.67
2023-02-23T02:47:36.622Z,22.23
2023-02-23T02:50:11.071Z,19.23
2023-02-23T02:52:44.075Z,24.30
2023-02-23T02:55:37.136Z,19.38
2023-02-23T02:58:07.881Z,22.90
2023-02-23T03:01:01.772Z,20.97
2023-02-23T03:03:57.662Z,16.90
2023-02-23T03:06:52.346Z,19.70
2023-02-23T03:10:00.348Z,18.87
2023-02-23T03:13:16.167Z,21.60
2023-02-23T03:16:18.769Z,25.83
2023-02-23T03:19:13.163Z,26.57
2023-02-23T03:22:10.503Z,21.93
2023-02-23T03:25:06.577Z,22.37
2023-02-23T03:28:35.197Z,22.70
2023-02-23T03:31:55.757Z,24.53
2023-02-23T03:34:59.777Z,19.37
2023-02-23T03:37:55.354Z,23.63
2023-02-23T03:40:45.526Z,20.00
2023-02-23T03:43:38.105Z,18.30
2023-02-23T03:46:27.714Z,21.90
2023-02-23T03:49:15.859Z,19.15
2023-02-23T03:52:05.390Z,17.77
2023-02-23T03:54:56.372Z,19.17
2023-02-23T03:57:46.436Z,21.53
2023-02-23T04:00:37.994Z,22.57
2023-02-23T04:03:24.802Z,20.67
2023-02-23T04:06:13.162Z,21.20
2023-02-23T04:08:59.218Z,22.13
2023-02-23T04:12:00.818Z,22.67
2023-02-23T04:14:39.870Z,16.63
2023-02-23T04:17:08.173Z,20.30
2023-02-23T04:19:34.878Z,22.00
2023-02-23T04:22:01.715Z,21.67
2023-02-23T04:24:28.385Z,21.77
2023-02-23T04:26:55.198Z,21.13
2023-02-23T04:29:21.914Z,22.65
2023-02-23T04:31:48.951Z,27.23
2023-02-23T04:34:15.785Z,19.93
2023-02-23T04:36:42.695Z,20.27
2023-02-23T04:39:09.418Z,22.10
2023-02-23T04:41:36.268Z,22.30
2023-02-23T04:44:02.986Z,17.87
2023-02-23T04:46:30.356Z,20.67
2023-02-23T04:48:57.116Z,21.03
2023-02-23T04:51:24.056Z,24.60
2023-02-23T04:53:51.501Z,22.47
2023-02-23T04:56:18.198Z,20.53
2023-02-23T04:58:44.957Z,19.50
2023-02-23T05:01:11.727Z,19.90
2023-02-23T05:03:38.547Z,19.13
2023-02-23T05:06:05.598Z,25.10
2023-02-23T05:08:32.410Z,22.80
2023-02-23T05:10:59.112Z,39.22
2023-02-23T05:13:25.918Z,20.00
2023-02-23T05:15:57.614Z,19.50
2023-02-23T05:18:25.361Z,22.07
2023-02-23T05:20:53.485Z,19.80
2023-02-23T05:23:21.900Z,23.63
2023-02-23T05:25:48.643Z,23.70
2023-02-23T05:28:15.381Z,24.30
2023-02-23T05:30:42.182Z,20.03
2023-02-23T05:33:08.998Z,23.67
2023-02-23T05:35:35.745Z,25.60
2023-02-23T05:38:02.460Z,21.40
2023-02-23T05:40:29.219Z,26.13
2023-02-23T05:42:59.320Z,25.17
2023-02-23T05:45:26.484Z,28.13
2023-02-23T05:47:53.234Z,24.03
2023-02-23T05:50:20.039Z,25.20
2023-02-23T05:52:46.740Z,22.77
2023-02-23T05:55:13.566Z,25.10
2023-02-23T05:57:44.216Z,22.90
2023-02-23T06:00:13.501Z,26.23
2023-02-23T06:02:41.791Z,25.27
2023-02-23T06:05:10.709Z,25.60
2023-02-23T06:07:37.685Z,26.03
2023-02-23T06:10:05.702Z,19.63
2023-02-23T06:12:32.393Z,30.40
2023-02-23T06:14:59.132Z,30.57
2023-02-23T06:17:25.889Z,25.20
2023-02-23T06:19:52.606Z,36.00
2023-02-23T06:22:19.363Z,27.20
2023-02-23T06:24:46.146Z,24.37
2023-02-23T06:27:14.043Z,24.40
2023-02-23T06:29:41.616Z,22.93
2023-02-23T06:32:08.448Z,22.53
2023-02-23T06:34:35.192Z,21.80
2023-02-23T06:37:01.855Z,26.07
2023-02-23T06:39:28.717Z,22.20
2023-02-23T06:41:55.403Z,24.47
2023-02-23T06:44:22.648Z,28.63
2023-02-23T06:46:49.490Z,25.33
2023-02-23T06:49:16.708Z,23.00
2023-02-23T06:51:43.543Z,27.83
2023-02-23T06:54:10.300Z,25.50
2023-02-23T06:56:37.061Z,25.37
2023-02-23T06:59:03.763Z,26.53
2023-02-23T07:01:31.131Z,30.40
2023-02-23T07:03:57.905Z,32.80
2023-02-23T07:06:24.769Z,25.83
2023-02-23T07:08:51.544Z,27.03
2023-02-23T07:11:20.294Z,28.20
2023-02-23T07:13:47.259Z,29.27
2023-02-23T07:16:16.238Z,34.77
2023-02-23T07:18:43.057Z,29.00
2023-02-23T07:21:09.830Z,28.60
2023-02-23T07:23:36.581Z,28.17
2023-02-23T07:26:03.324Z,26.60
2023-02-23T07:28:30.053Z,27.17
2023-02-23T07:30:57.602Z,26.30
2023-02-23T07:33:25.156Z,29.30
2023-02-23T07:35:52.146Z,32.33
2023-02-23T07:38:19.504Z,39.87
2023-02-23T07:40:46.295Z,35.63
2023-02-23T07:43:13.092Z,32.03
2023-02-23T07:45:39.790Z,28.43
2023-02-23T07:48:06.669Z,33.20
2023-02-23T07:50:33.465Z,29.97
2023-02-23T07:53:00.261Z,37.70
2023-02-23T07:55:27.163Z,33.27
2023-02-23T07:57:54.008Z,32.97
2023-02-23T08:00:21.084Z,37.73
2023-02-23T08:02:47.799Z,39.63
2023-02-23T08:05:14.495Z,38.03
2023-02-23T08:07:41.212Z,40.10
2023-02-23T08:10:08.362Z,38.47
2023-02-23T08:12:35.196Z,38.37
2023-02-23T08:15:03.112Z,34.27
2023-02-23T08:17:30.274Z,33.13
2023-02-23T08:19:57.075Z,37.10
2023-02-23T08:22:23.772Z,36.63
2023-02-23T08:24:50.482Z,35.00
2023-02-23T08:27:17.330Z,34.73
2023-02-23T08:29:44.160Z,41.90
2023-02-23T08:32:11.082Z,37.80
2023-02-23T08:34:43.239Z,50.33
2023-02-23T08:37:10.585Z,38.87
2023-02-23T08:39:37.896Z,36.73
2023-02-23T08:42:05.213Z,42.87
2023-02-23T08:44:32.016Z,40.13
2023-02-23T08:46:58.898Z,44.53
2023-02-23T08:49:25.952Z,42.43
2023-02-23T08:51:52.703Z,37.70
2023-02-23T08:54:20.428Z,45.03
2023-02-23T08:56:47.199Z,51.17
2023-02-23T08:59:14.911Z,48.37
2023-02-23T09:01:43.069Z,40.17
2023-02-23T09:04:09.895Z,45.73
2023-02-23T09:06:37.687Z,42.60
2023-02-23T09:09:04.652Z,44.63
2023-02-23T09:11:31.351Z,42.50
2023-02-23T09:13:58.283Z,46.67
2023-02-23T09:16:25.178Z,45.47
2023-02-23T09:18:52.203Z,44.77
2023-02-23T09:21:25.296Z,54.30
2023-02-23T09:23:54.485Z,53.50
2023-02-23T09:26:22.055Z,48.10
2023-02-23T09:28:49.824Z,50.80
2023-02-23T09:31:21.246Z,47.97
2023-02-23T09:33:48.728Z,44.33
2023-02-23T09:36:18.547Z,53.00
2023-02-23T09:38:46.832Z,52.73
2023-02-23T09:41:25.843Z,46.53
2023-02-23T09:44:12.013Z,44.20
2023-02-23T09:47:22.766Z,50.37
2023-02-23T09:49:51.930Z,43.90
2023-02-23T09:52:24.012Z,42.87
2023-02-23T09:54:50.944Z,36.93
2023-02-23T09:57:26.866Z,38.20
2023-02-23T09:59:53.649Z,37.83
2023-02-23T10:02:44.978Z,38.30
2023-02-23T10:05:14.113Z,44.40
2023-02-23T10:07:55.877Z,34.27
2023-02-23T10:10:46.329Z,41.40
2023-02-23T10:13:29.483Z,37.50
2023-02-23T10:16:12.387Z,38.37
2023-02-23T10:18:51.164Z,43.03
2023-02-23T10:21:35.246Z,37.70
2023-02-23T10:24:32.964Z,42.77
2023-02-23T10:27:21.395Z,40.50
2023-02-23T10:30:00.602Z,34.90
2023-02-23T10:32:38.770Z,40.87
2023-02-23T10:35:15.397Z,39.80
2023-02-23T10:37:42.430Z,34.13
2023-02-23T10:40:17.187Z,37.10
2023-02-23T10:42:44.045Z,42.40
2023-02-23T10:45:19.666Z,55.23
2023-02-23T10:47:48.440Z,35.43
2023-02-23T10:50:15.715Z,30.37
2023-02-23T10:52:46.422Z,32.80
2023-02-23T10:55:30.715Z,35.50
2023-02-23T10:58:18.409Z,35.20
2023-02-23T11:00:52.706Z,30.57
2023-02-23T11:03:30.445Z,11.80
2023-02-23T11:05:57.168Z,11.23
2023-02-23T11:08:41.963Z,7.50
2023-02-23T11:11:20.543Z,11.13
2023-02-23T11:13:50.900Z,7.67
2023-02-23T11:16:30.395Z,6.43
2023-02-23T11:19:00.985Z,11.30
2023-02-23T11:21:35.373Z,5.17
2023-02-23T11:24:26.824Z,6.30
2023-02-23T11:26:57.998Z,6.43
2023-02-23T11:29:35.594Z,6.67
2023-02-23T11:32:10.520Z,7.33
2023-02-23T11:34:40.782Z,4.27
2023-02-23T11:37:20.095Z,4.47
2023-02-23T11:39:58.186Z,5.40
2023-02-23T11:42:33.458Z,6.77
2023-02-23T11:45:11.434Z,7.20
2023-02-23T11:47:48.182Z,8.70
2023-02-23T11:50:29.082Z,7.73
2023-02-23T11:53:40.226Z,7.60
2023-02-23T11:56:13.484Z,4.30
2023-02-23T11:58:45.806Z,6.50
2023-02-23T12:01:17.159Z,6.70
2023-02-23T12:03:52.059Z,6.70
2023-02-23T12:06:33.186Z,5.10
2023-02-23T12:09:27.825Z,6.23
2023-02-23T12:12:11.108Z,5.80
2023-02-23T12:14:43.608Z,6.30
2023-02-23T12:17:47.232Z,8.17
2023-02-23T12:20:25.474Z,9.70
2023-02-23T12:22:58.901Z,9.67
2023-02-23T12:25:44.072Z,9.03
2023-02-23T12:28:31.436Z,7.30
2023-02-23T12:31:42.323Z,10.47
2023-02-23T12:34:28.270Z,11.90
2023-02-23T12:37:13.462Z,11.83
2023-02-23T12:39:45.178Z,8.47
2023-02-23T12:42:26.186Z,5.70
2023-02-23T12:44:56.002Z,10.27
2023-02-23T12:47:49.316Z,7.63
2023-02-23T12:50:33.853Z,5.50
2023-02-23T12:53:17.379Z,7.90
2023-02-23T12:56:32.876Z,9.93
2023-02-23T12:59:14.453Z,7.17
2023-02-23T13:01:54.661Z,9.03
2023-02-23T13:04:48.785Z,9.27
2023-02-23T13:07:22.030Z,4.43
2023-02-23T13:09:58.175Z,8.43
2023-02-23T13:12:50.806Z,9.40
2023-02-23T13:15:32.316Z,12.30
2023-02-23T13:18:14.203Z,7.53
2023-02-23T13:20:48.924Z,9.00
2023-02-23T13:23:15.614Z,7.77
2023-02-23T13:25:55.598Z,9.40
2023-02-23T13:28:47.723Z,12.50
2023-02-23T13:31:28.234Z,8.33
2023-02-23T13:33:58.114Z,6.37
2023-02-23T13:36:29.500Z,12.27
2023-02-23T13:39:23.601Z,7.50
2023-02-23T13:42:11.861Z,5.43
2023-02-23T13:44:59.579Z,4.83
2023-02-23T13:47:41.246Z,5.73
2023-02-23T13:50:40.441Z,6.37
2023-02-23T13:53:27.283Z,7.43
2023-02-23T13:56:04.337Z,7.20
2023-02-23T13:58:32.674Z,10.43
2023-02-23T14:01:14.308Z,8.60
2023-02-23T14:03:58.722Z,11.50
2023-02-23T14:06:28.599Z,7.13
2023-02-23T14:09:07.219Z,5.17
2023-02-23T14:11:46.051Z,5.37
2023-02-23T14:14:36.088Z,7.27
2023-02-23T14:17:15.750Z,6.70
2023-02-23T14:20:06.516Z,9.03
2023-02-23T14:22:36.803Z,4.90
2023-02-23T14:25:34.523Z,8.30
2023-02-23T14:28:22.346Z,3.73
2023-02-23T14:31:03.637Z,3.83
2023-02-23T14:33:38.462Z,8.43
2023-02-23T14:36:24.066Z,9.53
2023-02-23T14:38:57.020Z,9.37
2023-02-23T14:41:38.627Z,8.60
2023-02-23T14:44:41.375Z,8.13
2023-02-23T14:47:41.180Z,10.23
2023-02-23T14:50:17.432Z,8.43
2023-02-23T14:52:44.215Z,7.13
2023-02-23T14:55:23.761Z,9.93
2023-02-23T14:57:51.031Z,7.80
2023-02-23T15:00:23.371Z,3.83
2023-02-23T15:03:01.312Z,7.67
2023-02-23T15:05:46.240Z,6.47
2023-02-23T15:08:19.137Z,15.00
2023-02-23T15:10:48.963Z,5.20
2023-02-23T15:13:29.286Z,3.83
2023-02-23T15:15:58.402Z,10.13
2023-02-23T15:18:32.722Z,5.73
2023-02-23T15:20:59.940Z,10.03
2023-02-23T15:23:26.870Z,7.90
2023-02-23T15:25:53.632Z,5.33
2023-02-23T15:28:28.023Z,5.93
2023-02-23T15:30:56.815Z,18.30
2023-02-23T15:33:28.255Z,6.70
2023-02-23T15:36:08.192Z,6.30
2023-02-23T15:38:43.811Z,10.30
2023-02-23T15:41:36.795Z,6.03
2023-02-23T15:44:24.195Z,6.43
2023-02-23T15:47:17.047Z,10.63
2023-02-23T15:49:43.990Z,7.07
2023-02-23T15:52:17.745Z,9.13
2023-02-23T15:55:01.613Z,10.67
2023-02-23T15:57:59.539Z,7.43
2023-02-23T16:00:51.291Z,6.47
2023-02-23T16:03:30.693Z,16.47
2023-02-23T16:06:24.201Z,31.80
2023-02-23T16:09:21.326Z,13.80
2023-02-23T16:11:56.153Z,10.00
2023-02-23T16:14:24.457Z,8.70
2023-02-23T16:17:08.449Z,6.73
2023-02-23T16:19:41.162Z,5.20
2023-02-23T16:22:19.210Z,6.30
2023-02-23T16:24:53.471Z,10.80
2023-02-23T16:27:20.234Z,5.03
2023-02-23T16:29:47.008Z,5.57
2023-02-23T16:32:23.721Z,8.43
2023-02-23T16:35:00.667Z,9.57
2023-02-23T16:37:27.875Z,11.73
2023-02-23T16:39:58.509Z,15.60
2023-02-23T16:42:34.779Z,9.30
2023-02-23T16:45:02.094Z,12.53
2023-02-23T16:47:50.348Z,14.53
2023-02-23T16:50:21.273Z,13.47
2023-02-23T16:52:53.143Z,15.57
2023-02-23T16:55:26.159Z,15.80
2023-02-23T16:57:56.719Z,12.10
2023-02-23T17:00:32.764Z,15.43
2023-02-23T17:03:00.703Z,14.37
2023-02-23T17:05:29.097Z,17.80
2023-02-23T17:07:58.253Z,8.67
2023-02-23T17:10:31.766Z,9.33
2023-02-23T17:13:03.164Z,8.20
2023-02-23T17:15:33.857Z,3.50
2023-02-23T17:18:00.704Z,9.07
2023-02-23T17:20:28.332Z,10.43
2023-02-23T17:22:57.853Z,3.83
2023-02-23T17:25:26.462Z,13.10
2023-02-23T17:27:57.719Z,6.27
2023-02-23T17:30:25.509Z,4.43
2023-02-23T17:32:54.210Z,3.97
2023-02-23T17:35:21.472Z,4.60
2023-02-23T17:37:48.531Z,3.80
2023-02-23T17:40:28.394Z,4.93
2023-02-23T17:42:57.044Z,8.30
2023-02-23T17:45:24.492Z,9.70
2023-02-23T17:47:52.069Z,15.10
2023-02-23T17:50:22.587Z,5.93
2023-02-23T17:52:50.994Z,11.07
2023-02-23T17:55:18.959Z,4.33
2023-02-23T17:57:46.062Z,8.93
2023-02-23T18:00:15.496Z,10.33
2023-02-23T18:02:44.453Z,10.03
2023-02-23T18:05:12.460Z,8.50
2023-02-23T18:07:39.691Z,17.63
2023-02-23T18:10:07.296Z,8.50
2023-02-23T18:12:34.246Z,13.10
2023-02-23T18:15:02.520Z,14.07
2023-02-23T18:17:33.727Z,13.37
2023-02-23T18:20:00.959Z,6.93
2023-02-23T18:22:27.774Z,13.20
2023-02-23T18:24:55.713Z,18.37
2023-02-23T18:27:24.541Z,14.80
2023-02-23T18:29:51.268Z,9.03
2023-02-23T18:32:18.173Z,11.37
2023-02-23T18:34:45.090Z,9.93
2023-02-23T18:37:11.874Z,20.60
2023-02-23T18:39:38.658Z,11.30
2023-02-23T18:42:05.740Z,12.17
2023-02-23T18:44:35.030Z,7.13
2023-02-23T18:47:02.444Z,10.90
2023-02-23T18:49:29.326Z,11.10
2023-02-23T18:51:56.084Z,11.60
2023-02-23T18:54:25.955Z,16.47
2023-02-23T18:56:52.796Z,11.07
2023-02-23T18:59:19.573Z,15.47
2023-02-23T19:01:47.932Z,28.60
2023-02-23T19:04:15.080Z,24.73
2023-02-23T19:06:44.363Z,11.60
2023-02-23T19:09:14.270Z,13.53
2023-02-23T19:11:42.763Z,13.90
2023-02-23T19:14:13.431Z,10.10
2023-02-23T19:16:41.157Z,9.63
2023-02-23T19:19:09.337Z,12.30
2023-02-23T19:21:36.459Z,15.87
2023-02-23T19:24:04.334Z,14.97
2023-02-23T19:26:33.632Z,19.80
2023-02-23T19:29:00.958Z,12.80
2023-02-23T19:31:28.531Z,10.37
2023-02-23T19:33:56.530Z,7.83
2023-02-23T19:36:29.613Z,10.70
2023-02-23T19:39:05.834Z,7.30
2023-02-23T19:41:33.678Z,14.37
2023-02-23T19:44:00.714Z,12.17
2023-02-23T19:46:28.039Z,19.73
2023-02-23T19:48:55.787Z,19.40
2023-02-23T19:51:23.847Z,23.00
2023-02-23T19:53:56.348Z,24.87
2023-02-23T19:56:24.964Z,21.73
2023-02-23T19:58:52.410Z,16.67
2023-02-23T20:01:21.321Z,16.13
2023-02-23T20:03:55.474Z,21.37
2023-02-23T20:06:27.637Z,12.20
2023-02-23T20:08:55.177Z,14.20
2023-02-23T20:11:22.623Z,16.80
2023-02-23T20:13:50.940Z,24.03
2023-02-23T20:16:17.744Z,20.50
2023-02-23T20:18:44.759Z,13.67
2023-02-23T20:21:17.732Z,13.23
2023-02-23T20:23:46.160Z,10.33
2023-02-23T20:26:20.375Z,8.90
2023-02-23T20:28:47.513Z,13.53
2023-02-23T20:31:21.310Z,10.90
2023-02-23T20:33:51.340Z,13.53
2023-02-23T20:36:20.626Z,7.93
2023-02-23T20:38:47.470Z,10.60
2023-02-23T20:41:14.369Z,7.47
2023-02-23T20:43:41.170Z,10.70
2023-02-23T20:46:07.955Z,8.30
2023-02-23T20:48:35.572Z,20.53
2023-02-23T20:51:02.475Z,8.53
2023-02-23T20:53:30.071Z,7.60
2023-02-23T20:55:56.976Z,11.00
2023-02-23T20:58:24.921Z,8.93
2023-02-23T21:00:54.708Z,8.33
2023-02-23T21:03:21.825Z,7.23
2023-02-23T21:05:49.021Z,15.50
2023-02-23T21:08:15.816Z,7.73
2023-02-23T21:10:42.952Z,8.80
2023-02-23T21:13:12.653Z,8.40
2023-02-23T21:15:40.949Z,6.00
2023-02-23T21:18:08.054Z,9.13
2023-02-23T21:20:36.613Z,13.37
2023-02-23T21:23:04.404Z,8.20
2023-02-23T21:25:31.750Z,8.33
2023-02-23T21:28:01.879Z,10.53
2023-02-23T21:30:29.179Z,11.10
2023-02-23T21:32:57.483Z,9.20
2023-02-23T21:35:24.648Z,8.10
2023-02-23T21:37:52.661Z,10.40
2023-02-23T21:40:21.025Z,8.90
2023-02-23T21:42:49.354Z,11.20
2023-02-23T21:45:17.119Z,6.17
2023-02-23T21:47:45.927Z,13.73
2023-02-23T21:50:16.454Z,9.37
2023-02-23T21:52:45.195Z,8.10
2023-02-23T21:55:23.481Z,7.80
2023-02-23T21:57:51.827Z,9.57
2023-02-23T22:00:19.213Z,7.43
2023-02-23T22:02:46.643Z,9.73
2023-02-23T22:05:15.472Z,10.37
2023-02-23T22:07:47.204Z,11.10
2023-02-23T22:10:13.998Z,10.67
2023-02-23T22:12:40.705Z,11.33
2023-02-23T22:15:08.655Z,12.63
2023-02-23T22:17:36.133Z,11.40
2023-02-23T22:20:05.397Z,15.23
2023-02-23T22:22:36.003Z,11.93
2023-02-23T22:25:04.769Z,10.20
2023-02-23T22:27:31.989Z,17.80
2023-02-23T22:30:01.938Z,11.30
2023-02-23T22:32:32.990Z,13.87
2023-02-23T22:35:01.012Z,15.07
2023-02-23T22:37:31.902Z,12.57
2023-02-23T22:40:08.091Z,12.40
2023-02-23T22:42:35.451Z,15.80
2023-02-23T22:45:02.392Z,12.07
2023-02-23T22:47:29.200Z,12.03
2023-02-23T22:49:55.891Z,17.40
2023-02-23T22:52:22.691Z,15.20
2023-02-23T22:54:51.178Z,9.80
2023-02-23T22:57:17.932Z,10.00
2023-02-23T22:59:54.589Z,9.07
2023-02-23T23:02:22.692Z,7.43
2023-02-23T23:04:49.658Z,8.40
2023-02-23T23:07:19.887Z,9.00
2023-02-23T23:09:46.824Z,9.47
2023-02-23T23:12:13.628Z,12.80
2023-02-23T23:14:40.321Z,11.60
2023-02-23T23:17:07.139Z,8.60
2023-02-23T23:19:39.000Z,11.13
2023-02-23T23:22:05.884Z,6.53
2023-02-23T23:24:32.713Z,13.63
2023-02-23T23:27:00.834Z,10.67
2023-02-23T23:29:30.479Z,7.67
2023-02-23T23:31:57.448Z,11.27
2023-02-23T23:34:25.231Z,9.23
2023-02-23T23:36:53.151Z,7.20
2023-02-23T23:39:22.553Z,12.83
2023-02-23T23:41:51.218Z,9.50
2023-02-23T23:44:21.298Z,6.80
2023-02-23T23:46:50.610Z,13.97
2023-02-23T23:49:20.457Z,9.17
2023-02-23T23:51:50.356Z,12.00
2023-02-23T23:54:23.388Z,9.73
2023-02-23T23:56:50.761Z,11.13
2023-02-23T23:59:21.245Z,9.47
